Time,TemperatureF,DewpointF,PressureIn,WindDirection,WindDirectionDegrees,WindSpeedMPH,WindSpeedGustMPH,Humidity,HourlyPrecipIn,Conditions,Clouds,dailyrainin,SolarRadiationWatts/m^2,SoftwareType,DateUTC
2013-11-18 00:00:00,70.3,69.1,29.87,ESE,112,0.0,2.0,96,0.00,,,0.00,0.00,VWS V14.00,2013-11-18 06:00:00,
2013-11-18 00:15:00,70.3,69.1,29.87,ESE,112,0.0,1.0,96,0.00,,,0.00,0.00,VWS V14.00,2013-11-18 06:15:00,
2013-11-18 00:30:00,70.2,69.0,29.87,ESE,112,0.0,0.0,96,0.00,,,0.00,0.00,VWS V14.00,2013-11-18 06:30:00,
2013-11-18 00:45:00,70.5,69.3,29.87,ESE,112,0.0,1.0,96,0.00,,,0.00,0.00,VWS V14.00,2013-11-18 06:45:00,
2013-11-18 01:00:00,70.6,69.4,29.87,ESE,112,0.0,2.0,96,0.00,,,0.00,0.00,VWS V14.00,2013-11-18 07:00:00,
2013-11-18 01:15:00,70.5,69.3,29.87,ESE,112,0.0,2.0,96,0.00,,,0.00,0.00,VWS V14.00,2013-11-18 07:15:00,
2013-11-18 01:30:00,70.6,69.4,29.88,ESE,112,0.0,3.0,96,0.00,,,0.00,0.00,VWS V14.00,2013-11-18 07:30:00,
2013-11-18 01:45:00,70.4,69.2,29.88,ESE,112,0.0,2.0,96,0.00,,,0.00,0.00,VWS V14.00,2013-11-18 07:45:00,
2013-11-18 02:00:00,70.4,69.2,29.88,ESE,112,0.0,1.0,96,0.00,,,0.00,0.00,VWS V14.00,2013-11-18 08:00:00,
2013-11-18 02:15:00,70.7,69.5,29.88,ESE,112,0.0,0.0,96,0.00,,,0.00,0.00,VWS V14.00,2013-11-18 08:15:00,
2013-11-18 02:30:00,70.8,69.6,29.89,ESE,112,0.0,0.0,96,0.00,,,0.00,0.00,VWS V14.00,2013-11-18 08:30:00,
2013-11-18 02:45:00,70.7,69.5,29.89,ESE,112,0.0,0.0,96,0.00,,,0.00,0.00,VWS V14.00,2013-11-18 08:45:00,
2013-11-18 03:00:00,70.8,69.6,29.89,ESE,112,0.0,0.0,96,0.00,,,0.00,0.00,VWS V14.00,2013-11-18 09:00:00,
2013-11-18 03:15:00,71.1,70.2,29.89,ESE,112,0.0,1.0,97,0.00,,,0.00,0.00,VWS V14.00,2013-11-18 09:15:00,
2013-11-18 03:30:00,71.1,70.2,29.89,ESE,112,0.0,0.0,97,0.00,,,0.00,0.00,VWS V14.00,2013-11-18 09:30:00,
2013-11-18 03:45:00,71.0,70.1,29.89,ESE,112,0.0,0.0,97,0.00,,,0.00,0.00,VWS V14.00,2013-11-18 09:45:00,
2013-11-18 04:00:00,71.2,70.3,29.89,ESE,112,0.0,0.0,97,0.00,,,0.00,0.00,VWS V14.00,2013-11-18 10:00:00,
2013-11-18 04:15:00,71.2,70.3,29.89,ESE,112,0.0,0.0,97,0.00,,,0.00,0.00,VWS V14.00,2013-11-18 10:15:00,
2013-11-18 04:30:00,71.1,70.2,29.89,ESE,112,0.0,0.0,97,0.00,,,0.00,0.00,VWS V14.00,2013-11-18 10:30:00,
2013-11-18 04:45:00,71.0,70.1,29.89,ESE,112,0.0,0.0,97,0.00,,,0.00,0.00,VWS V14.00,2013-11-18 10:45:00,
2013-11-18 05:00:00,70.9,70.0,29.90,ESE,112,0.0,0.0,97,0.00,,,0.00,0.00,VWS V14.00,2013-11-18 11:00:00,
2013-11-18 05:15:00,70.8,69.9,29.90,ESE,112,0.0,0.0,97,0.00,,,0.00,0.00,VWS V14.00,2013-11-18 11:15:00,
2013-11-18 05:30:00,70.9,70.0,29.90,ESE,112,0.0,0.0,97,0.00,,,0.00,0.00,VWS V14.00,2013-11-18 11:30:00,
2013-11-18 05:45:00,70.9,70.0,29.91,ESE,112,0.0,0.0,97,0.00,,,0.00,0.00,VWS V14.00,2013-11-18 11:45:00,
2013-11-18 06:00:00,70.7,69.8,29.91,ESE,112,0.0,0.0,97,0.00,,,0.01,0.00,VWS V14.00,2013-11-18 12:00:00,
2013-11-18 06:15:00,70.8,69.9,29.91,ESE,112,0.0,0.0,97,0.00,,,0.01,0.00,VWS V14.00,2013-11-18 12:15:00,
2013-11-18 06:30:00,70.8,69.9,29.92,ESE,112,0.0,0.0,97,0.00,,,0.01,0.00,VWS V14.00,2013-11-18 12:30:00,
2013-11-18 06:45:00,71.1,70.2,29.92,ESE,112,0.0,0.0,97,0.00,,,0.01,0.00,VWS V14.00,2013-11-18 12:45:00,
2013-11-18 07:00:00,71.3,70.4,29.92,ESE,112,0.0,0.0,97,0.00,,,0.01,0.00,VWS V14.00,2013-11-18 13:00:00,
2013-11-18 07:15:00,71.5,70.6,29.93,ESE,112,0.0,0.0,97,0.00,,,0.01,3.00,VWS V14.00,2013-11-18 13:15:00,
2013-11-18 07:32:00,71.8,70.9,29.93,ESE,112,0.0,0.0,97,0.00,,,0.01,11.00,VWS V14.00,2013-11-18 13:32:00,
2013-11-18 07:45:00,72.1,71.2,29.93,North,0,0.0,0.0,97,0.00,,,0.01,26.00,VWS V14.00,2013-11-18 13:45:00,
2013-11-18 08:00:00,72.3,71.4,29.94,ESE,112,0.0,1.0,97,0.00,,,0.01,43.00,VWS V14.00,2013-11-18 14:00:00,
2013-11-18 08:15:00,72.3,71.4,29.95,ESE,112,0.0,1.0,97,0.00,,,0.01,51.00,VWS V14.00,2013-11-18 14:15:00,
2013-11-18 08:30:00,72.4,71.5,29.95,ESE,112,0.0,2.0,97,0.00,,,0.01,61.00,VWS V14.00,2013-11-18 14:30:00,
2013-11-18 08:45:00,72.6,71.7,29.96,ESE,112,0.0,2.0,97,0.00,,,0.01,68.00,VWS V14.00,2013-11-18 14:45:00,
2013-11-18 09:00:00,72.7,71.8,29.97,ESE,112,0.0,4.0,97,0.00,,,0.01,70.00,VWS V14.00,2013-11-18 15:00:00,
2013-11-18 09:15:00,72.7,71.8,29.98,ENE,68,1.0,4.0,97,0.00,,,0.01,70.00,VWS V14.00,2013-11-18 15:15:00,
2013-11-18 09:30:00,72.7,71.8,29.98,North,0,1.0,4.0,97,0.00,,,0.01,62.00,VWS V14.00,2013-11-18 15:30:00,
2013-11-18 09:45:00,72.5,71.6,29.98,NNW,338,2.0,7.0,97,0.00,,,0.01,68.00,VWS V14.00,2013-11-18 15:45:00,
2013-11-18 10:00:00,72.7,71.8,29.98,North,0,1.0,7.0,97,0.00,,,0.01,70.00,VWS V14.00,2013-11-18 16:00:00,
2013-11-18 10:15:00,72.7,71.8,29.98,North,0,1.0,5.0,97,0.00,,,0.01,61.00,VWS V14.00,2013-11-18 16:15:00,
2013-11-18 10:30:00,73.1,72.2,29.97,NE,45,1.0,5.0,97,0.00,,,0.01,150.00,VWS V14.00,2013-11-18 16:30:00,
2013-11-18 10:45:00,73.4,72.5,29.98,NE,45,1.0,5.0,97,0.00,,,0.01,138.00,VWS V14.00,2013-11-18 16:45:00,
2013-11-18 11:00:00,73.3,72.4,29.97,North,0,2.0,6.0,97,0.00,,,0.01,119.00,VWS V14.00,2013-11-18 17:00:00,
2013-11-18 11:15:00,73.9,73.0,29.97,NE,45,2.0,7.0,97,0.00,,,0.01,217.00,VWS V14.00,2013-11-18 17:15:00,
2013-11-18 11:30:00,74.2,73.0,29.97,NNE,22,2.0,6.0,96,0.00,,,0.01,143.00,VWS V14.00,2013-11-18 17:30:00,
2013-11-18 11:45:00,75.2,74.0,29.95,North,0,2.0,6.0,96,0.00,,,0.01,318.00,VWS V14.00,2013-11-18 17:45:00,
2013-11-18 12:00:00,76.4,74.9,29.95,East,90,2.0,9.0,95,0.00,,,0.01,426.00,VWS V14.00,2013-11-18 18:00:00,
2013-11-18 12:15:00,77.6,75.1,29.94,ESE,112,3.0,7.0,92,0.00,,,0.01,806.00,VWS V14.00,2013-11-18 18:15:00,
2013-11-18 12:30:00,79.2,75.0,29.93,NE,45,2.0,7.0,87,0.00,,,0.01,401.00,VWS V14.00,2013-11-18 18:30:00,
2013-11-18 12:45:00,80.3,74.7,29.93,NNE,22,1.0,6.0,83,0.00,,,0.01,421.00,VWS V14.00,2013-11-18 18:45:00,
2013-11-18 13:00:00,80.8,74.8,29.93,North,0,1.0,5.0,82,0.00,,,0.01,277.00,VWS V14.00,2013-11-18 19:00:00,
2013-11-18 13:15:00,79.9,74.3,29.92,West,270,1.0,5.0,83,0.00,,,0.01,158.00,VWS V14.00,2013-11-18 19:15:00,
2013-11-18 13:30:00,78.7,73.5,29.92,WSW,248,1.0,4.0,84,0.00,,,0.01,103.00,VWS V14.00,2013-11-18 19:30:00,
2013-11-18 13:45:00,78.4,73.9,29.92,WSW,248,0.0,4.0,86,0.00,,,0.01,71.00,VWS V14.00,2013-11-18 19:45:00,
2013-11-18 14:00:00,77.4,72.9,29.92,SW,225,1.0,4.0,86,0.00,,,0.01,63.00,VWS V14.00,2013-11-18 20:00:00,
2013-11-18 14:15:00,76.7,72.9,29.91,SSW,202,0.0,3.0,88,0.00,,,0.01,84.00,VWS V14.00,2013-11-18 20:15:00,
2013-11-18 14:30:00,77.5,73.7,29.91,SSW,202,0.0,2.0,88,0.00,,,0.01,141.00,VWS V14.00,2013-11-18 20:30:00,
2013-11-18 14:45:00,79.1,74.2,29.91,ESE,112,1.0,5.0,85,0.00,,,0.01,291.00,VWS V14.00,2013-11-18 20:45:00,
2013-11-18 15:00:00,80.0,74.4,29.91,East,90,2.0,7.0,83,0.00,,,0.01,276.00,VWS V14.00,2013-11-18 21:00:00,
2013-11-18 15:15:00,80.6,74.2,29.91,NE,45,2.0,7.0,81,0.00,,,0.01,324.00,VWS V14.00,2013-11-18 21:15:00,
2013-11-18 15:30:00,78.5,73.3,29.91,ESE,112,2.0,6.0,84,0.00,,,0.01,136.00,VWS V14.00,2013-11-18 21:30:00,
2013-11-18 15:45:00,76.9,72.7,29.92,ESE,112,3.0,7.0,87,0.00,,,0.01,142.00,VWS V14.00,2013-11-18 21:45:00,
2013-11-18 16:00:00,75.9,72.4,29.92,ESE,112,4.0,11.0,89,0.00,,,0.01,173.00,VWS V14.00,2013-11-18 22:00:00,
2013-11-18 16:15:00,74.5,70.0,29.93,NE,45,5.0,13.0,86,0.00,,,0.01,82.00,VWS V14.00,2013-11-18 22:15:00,
2013-11-18 16:30:00,73.1,68.7,29.93,NE,45,4.0,11.0,86,0.00,,,0.01,12.00,VWS V14.00,2013-11-18 22:30:00,
2013-11-18 16:45:00,71.7,67.3,29.94,NE,45,3.0,11.0,86,0.00,,,0.01,7.00,VWS V14.00,2013-11-18 22:45:00,
2013-11-18 17:00:00,70.1,66.4,29.94,ENE,68,3.0,9.0,88,0.27,,,0.04,1.00,VWS V14.00,2013-11-18 23:00:00,
2013-11-18 17:15:00,69.2,65.8,29.94,ENE,68,1.0,6.0,89,0.22,,,0.07,5.00,VWS V14.00,2013-11-18 23:15:00,
2013-11-18 17:30:00,68.6,65.6,29.95,ENE,68,2.0,9.0,90,0.22,,,0.09,0.00,VWS V14.00,2013-11-18 23:30:00,
2013-11-18 17:45:00,68.2,64.8,29.95,NE,45,3.0,6.0,89,0.00,,,0.09,0.00,VWS V14.00,2013-11-18 23:45:00,
2013-11-18 18:00:00,68.4,64.4,29.96,NNE,22,3.0,7.0,87,0.00,,,0.09,0.00,VWS V14.00,2013-11-19 00:00:00,
2013-11-18 18:15:00,68.5,64.2,29.96,NNE,22,2.0,6.0,86,0.00,,,0.09,0.00,VWS V14.00,2013-11-19 00:15:00,
2013-11-18 18:30:00,68.8,63.1,29.96,ENE,68,3.0,8.0,82,0.00,,,0.09,0.00,VWS V14.00,2013-11-19 00:30:00,
2013-11-18 18:45:00,69.0,62.6,29.97,NNE,22,3.0,9.0,80,0.00,,,0.09,0.00,VWS V14.00,2013-11-19 00:45:00,
2013-11-18 19:00:00,69.2,62.1,29.98,NE,45,3.0,8.0,78,0.00,,,0.09,0.00,VWS V14.00,2013-11-19 01:00:00,
2013-11-18 19:15:00,69.2,61.0,29.98,NE,45,4.0,10.0,75,0.00,,,0.09,0.00,VWS V14.00,2013-11-19 01:15:00,
2013-11-18 19:30:00,69.3,59.9,29.99,NNE,22,4.0,10.0,72,0.00,,,0.09,0.00,VWS V14.00,2013-11-19 01:30:00,
2013-11-18 19:45:00,69.3,58.7,29.99,NE,45,4.0,12.0,69,0.00,,,0.09,0.00,VWS V14.00,2013-11-19 01:45:00,
2013-11-18 20:00:00,69.0,58.0,29.99,NE,45,4.0,11.0,68,0.00,,,0.09,0.00,VWS V14.00,2013-11-19 02:00:00,
2013-11-18 20:15:00,67.9,58.5,29.99,NE,45,3.0,7.0,72,0.00,,,0.09,0.00,VWS V14.00,2013-11-19 02:15:00,
2013-11-18 20:30:00,67.8,58.5,30.00,NE,45,3.0,10.0,72,0.00,,,0.09,0.00,VWS V14.00,2013-11-19 02:30:00,
2013-11-18 20:45:00,67.9,58.2,30.00,NE,45,4.0,13.0,71,0.00,,,0.09,0.00,VWS V14.00,2013-11-19 02:45:00,
2013-11-18 21:00:00,68.4,58.6,30.00,NE,45,4.0,10.0,71,0.00,,,0.09,0.00,VWS V14.00,2013-11-19 03:00:00,
2013-11-18 21:15:00,68.8,59.0,30.02,NNE,22,4.0,11.0,71,0.00,,,0.09,0.00,VWS V14.00,2013-11-19 03:15:00,
2013-11-18 21:30:00,69.1,58.9,30.02,NNE,22,5.0,12.0,70,0.00,,,0.09,0.00,VWS V14.00,2013-11-19 03:30:00,
2013-11-18 21:45:00,69.1,59.3,30.02,NE,45,4.0,14.0,71,0.00,,,0.09,0.00,VWS V14.00,2013-11-19 03:45:00,
2013-11-18 22:00:00,69.1,58.5,30.02,NE,45,5.0,12.0,69,0.00,,,0.09,0.00,VWS V14.00,2013-11-19 04:00:00,
2013-11-18 22:15:00,69.2,59.0,30.03,NNE,22,5.0,15.0,70,0.00,,,0.09,0.00,VWS V14.00,2013-11-19 04:15:00,
2013-11-18 22:30:00,69.2,58.6,30.02,NNE,22,5.0,14.0,69,0.00,,,0.09,0.00,VWS V14.00,2013-11-19 04:30:00,
2013-11-18 22:45:00,69.6,57.8,30.01,NNE,22,5.0,12.0,66,0.00,,,0.09,0.00,VWS V14.00,2013-11-19 04:45:00,
2013-11-18 23:00:00,69.7,57.4,30.01,NNE,22,6.0,14.0,65,0.00,,,0.09,0.00,VWS V14.00,2013-11-19 05:00:00,
2013-11-18 23:45:00,69.3,57.5,30.00,NNE,22,5.0,14.0,66,0.00,,,0.09,0.00,VWS V14.00,2013-11-19 05:45:00,